sensor_id;sensor_type;location;lat;lon;timestamp;P1;P2;P0
64138;PMS5003;50435;43.700;-79.318;2023-04-03T00:00:39;4;3;
64138;PMS5003;50435;43.700;-79.318;2023-04-03T00:03:06;3;3;
64138;PMS5003;50435;43.700;-79.318;2023-04-03T00:05:34;2;2;
64138;PMS5003;50435;43.700;-79.318;2023-04-03T00:08:01;3;2;
64138;PMS5003;50435;43.700;-79.318;2023-04-03T00:10:28;4;2;
64138;PMS5003;50435;43.700;-79.318;2023-04-03T00:12:56;2;2;
64138;PMS5003;50435;43.700;-79.318;2023-04-03T00:15:23;1;1;
64138;PMS5003;50435;43.700;-79.318;2023-04-03T00:17:50;1;1;
64138;PMS5003;50435;43.700;-79.318;2023-04-03T00:20:17;0;0;
64138;PMS5003;50435;43.700;-79.318;2023-04-03T00:22:45;1;1;
64138;PMS5003;50435;43.700;-79.318;2023-04-03T00:25:12;2;2;
64138;PMS5003;50435;43.700;-79.318;2023-04-03T00:27:40;1;1;
64138;PMS5003;50435;43.700;-79.318;2023-04-03T00:30:08;2;2;
64138;PMS5003;50435;43.700;-79.318;2023-04-03T00:32:40;1;1;
64138;PMS5003;50435;43.700;-79.318;2023-04-03T00:35:08;2;2;
64138;PMS5003;50435;43.700;-79.318;2023-04-03T00:37:36;2;2;
64138;PMS5003;50435;43.700;-79.318;2023-04-03T00:40:04;1;1;
64138;PMS5003;50435;43.700;-79.318;2023-04-03T00:42:32;4;2;
64138;PMS5003;50435;43.700;-79.318;2023-04-03T00:45:23;2;2;
64138;PMS5003;50435;43.700;-79.318;2023-04-03T00:47:58;1;1;
64138;PMS5003;50435;43.700;-79.318;2023-04-03T00:50:27;3;1;
64138;PMS5003;50435;43.700;-79.318;2023-04-03T00:52:55;2;2;
64138;PMS5003;50435;43.700;-79.318;2023-04-03T00:55:24;2;2;
64138;PMS5003;50435;43.700;-79.318;2023-04-03T00:57:52;1;1;
64138;PMS5003;50435;43.700;-79.318;2023-04-03T01:00:21;0;0;
64138;PMS5003;50435;43.700;-79.318;2023-04-03T01:02:50;1;0;
64138;PMS5003;50435;43.700;-79.318;2023-04-03T01:05:18;1;1;
64138;PMS5003;50435;43.700;-79.318;2023-04-03T01:07:48;1;1;
64138;PMS5003;50435;43.700;-79.318;2023-04-03T01:10:18;2;1;
64138;PMS5003;50435;43.700;-79.318;2023-04-03T01:12:47;2;2;
64138;PMS5003;50435;43.700;-79.318;2023-04-03T01:15:17;1;1;
64138;PMS5003;50435;43.700;-79.318;2023-04-03T01:17:48;1;1;
64138;PMS5003;50435;43.700;-79.318;2023-04-03T01:20:23;1;1;
64138;PMS5003;50435;43.700;-79.318;2023-04-03T01:23:22;2;2;
64138;PMS5003;50435;43.700;-79.318;2023-04-03T01:25:58;3;2;
64138;PMS5003;50435;43.700;-79.318;2023-04-03T01:28:26;1;1;
64138;PMS5003;50435;43.700;-79.318;2023-04-03T01:30:58;1;1;
64138;PMS5003;50435;43.700;-79.318;2023-04-03T01:33:32;2;2;
64138;PMS5003;50435;43.700;-79.318;2023-04-03T01:36:00;2;1;
64138;PMS5003;50435;43.700;-79.318;2023-04-03T01:38:28;1;1;
64138;PMS5003;50435;43.700;-79.318;2023-04-03T01:40:55;2;2;
64138;PMS5003;50435;43.700;-79.318;2023-04-03T01:43:22;1;1;
64138;PMS5003;50435;43.700;-79.318;2023-04-03T01:45:50;1;1;
64138;PMS5003;50435;43.700;-79.318;2023-04-03T01:48:17;1;1;
64138;PMS5003;50435;43.700;-79.318;2023-04-03T01:50:45;1;1;
64138;PMS5003;50435;43.700;-79.318;2023-04-03T01:53:13;2;2;
64138;PMS5003;50435;43.700;-79.318;2023-04-03T01:55:41;2;2;
64138;PMS5003;50435;43.700;-79.318;2023-04-03T01:58:08;1;1;
64138;PMS5003;50435;43.700;-79.318;2023-04-03T02:00:36;2;1;
64138;PMS5003;50435;43.700;-79.318;2023-04-03T02:03:03;3;2;
64138;PMS5003;50435;43.700;-79.318;2023-04-03T02:05:31;2;2;
64138;PMS5003;50435;43.700;-79.318;2023-04-03T02:07:59;1;1;
64138;PMS5003;50435;43.700;-79.318;2023-04-03T02:10:26;2;2;
64138;PMS5003;50435;43.700;-79.318;2023-04-03T02:12:54;1;1;
64138;PMS5003;50435;43.700;-79.318;2023-04-03T02:15:21;1;1;
64138;PMS5003;50435;43.700;-79.318;2023-04-03T02:17:48;3;1;
64138;PMS5003;50435;43.700;-79.318;2023-04-03T02:20:16;1;1;
64138;PMS5003;50435;43.700;-79.318;2023-04-03T02:22:44;1;1;
64138;PMS5003;50435;43.700;-79.318;2023-04-03T02:25:11;1;1;
64138;PMS5003;50435;43.700;-79.318;2023-04-03T02:27:38;3;2;
64138;PMS5003;50435;43.700;-79.318;2023-04-03T02:30:06;2;2;
64138;PMS5003;50435;43.700;-79.318;2023-04-03T02:32:34;2;2;
64138;PMS5003;50435;43.700;-79.318;2023-04-03T02:35:01;1;1;
64138;PMS5003;50435;43.700;-79.318;2023-04-03T02:37:28;1;1;
64138;PMS5003;50435;43.700;-79.318;2023-04-03T02:39:56;2;2;
64138;PMS5003;50435;43.700;-79.318;2023-04-03T02:42:23;3;2;
64138;PMS5003;50435;43.700;-79.318;2023-04-03T02:44:50;1;1;
64138;PMS5003;50435;43.700;-79.318;2023-04-03T02:47:17;1;1;
64138;PMS5003;50435;43.700;-79.318;2023-04-03T02:49:45;3;2;
64138;PMS5003;50435;43.700;-79.318;2023-04-03T02:52:12;1;1;
64138;PMS5003;50435;43.700;-79.318;2023-04-03T02:54:39;2;2;
64138;PMS5003;50435;43.700;-79.318;2023-04-03T02:57:07;2;2;
64138;PMS5003;50435;43.700;-79.318;2023-04-03T02:59:34;3;3;
64138;PMS5003;50435;43.700;-79.318;2023-04-03T03:02:02;1;1;
64138;PMS5003;50435;43.700;-79.318;2023-04-03T03:04:29;2;2;
64138;PMS5003;50435;43.700;-79.318;2023-04-03T03:06:57;1;1;
64138;PMS5003;50435;43.700;-79.318;2023-04-03T03:09:24;2;2;
64138;PMS5003;50435;43.700;-79.318;2023-04-03T03:11:51;1;1;
64138;PMS5003;50435;43.700;-79.318;2023-04-03T03:14:19;1;1;
64138;PMS5003;50435;43.700;-79.318;2023-04-03T03:16:46;1;1;
64138;PMS5003;50435;43.700;-79.318;2023-04-03T03:19:13;1;1;
64138;PMS5003;50435;43.700;-79.318;2023-04-03T03:21:41;2;2;
64138;PMS5003;50435;43.700;-79.318;2023-04-03T03:24:08;3;2;
64138;PMS5003;50435;43.700;-79.318;2023-04-03T03:26:35;2;2;
64138;PMS5003;50435;43.700;-79.318;2023-04-03T03:29:02;0;0;
64138;PMS5003;50435;43.700;-79.318;2023-04-03T03:31:30;0;0;
64138;PMS5003;50435;43.700;-79.318;2023-04-03T03:33:57;1;1;
64138;PMS5003;50435;43.700;-79.318;2023-04-03T03:36:24;2;1;
64138;PMS5003;50435;43.700;-79.318;2023-04-03T03:38:52;1;1;
64138;PMS5003;50435;43.700;-79.318;2023-04-03T03:41:19;1;1;
64138;PMS5003;50435;43.700;-79.318;2023-04-03T03:43:46;1;1;
64138;PMS5003;50435;43.700;-79.318;2023-04-03T03:46:13;2;2;
64138;PMS5003;50435;43.700;-79.318;2023-04-03T03:48:41;1;1;
64138;PMS5003;50435;43.700;-79.318;2023-04-03T03:51:08;2;2;
64138;PMS5003;50435;43.700;-79.318;2023-04-03T03:53:35;1;1;
64138;PMS5003;50435;43.700;-79.318;2023-04-03T03:56:03;2;2;
64138;PMS5003;50435;43.700;-79.318;2023-04-03T03:58:31;4;3;
64138;PMS5003;50435;43.700;-79.318;2023-04-03T04:01:00;1;1;
64138;PMS5003;50435;43.700;-79.318;2023-04-03T04:03:28;1;1;
64138;PMS5003;50435;43.700;-79.318;2023-04-03T04:05:55;1;1;
64138;PMS5003;50435;43.700;-79.318;2023-04-03T04:08:22;0;0;
64138;PMS5003;50435;43.700;-79.318;2023-04-03T04:10:50;1;1;
64138;PMS5003;50435;43.700;-79.318;2023-04-03T04:13:17;1;1;
64138;PMS5003;50435;43.700;-79.318;2023-04-03T04:15:44;2;1;
64138;PMS5003;50435;43.700;-79.318;2023-04-03T04:18:11;1;1;
64138;PMS5003;50435;43.700;-79.318;2023-04-03T04:20:39;1;1;
64138;PMS5003;50435;43.700;-79.318;2023-04-03T04:23:06;1;1;
64138;PMS5003;50435;43.700;-79.318;2023-04-03T04:25:34;1;1;
64138;PMS5003;50435;43.700;-79.318;2023-04-03T04:28:02;1;1;
64138;PMS5003;50435;43.700;-79.318;2023-04-03T04:30:30;4;2;
64138;PMS5003;50435;43.700;-79.318;2023-04-03T04:32:57;1;1;
64138;PMS5003;50435;43.700;-79.318;2023-04-03T04:35:24;2;2;
64138;PMS5003;50435;43.700;-79.318;2023-04-03T04:37:52;2;2;
64138;PMS5003;50435;43.700;-79.318;2023-04-03T04:40:19;2;2;
64138;PMS5003;50435;43.700;-79.318;2023-04-03T04:42:46;1;1;
64138;PMS5003;50435;43.700;-79.318;2023-04-03T04:45:14;3;3;
64138;PMS5003;50435;43.700;-79.318;2023-04-03T04:47:41;1;1;
64138;PMS5003;50435;43.700;-79.318;2023-04-03T04:50:08;1;1;
64138;PMS5003;50435;43.700;-79.318;2023-04-03T04:52:37;1;1;
64138;PMS5003;50435;43.700;-79.318;2023-04-03T04:55:06;1;1;
64138;PMS5003;50435;43.700;-79.318;2023-04-03T04:57:33;1;1;
64138;PMS5003;50435;43.700;-79.318;2023-04-03T05:00:01;3;2;
64138;PMS5003;50435;43.700;-79.318;2023-04-03T05:02:29;2;2;
64138;PMS5003;50435;43.700;-79.318;2023-04-03T05:04:56;1;1;
64138;PMS5003;50435;43.700;-79.318;2023-04-03T05:07:24;2;2;
64138;PMS5003;50435;43.700;-79.318;2023-04-03T05:09:52;2;1;
64138;PMS5003;50435;43.700;-79.318;2023-04-03T05:12:19;0;0;
64138;PMS5003;50435;43.700;-79.318;2023-04-03T05:14:46;1;1;
64138;PMS5003;50435;43.700;-79.318;2023-04-03T05:17:14;1;1;
64138;PMS5003;50435;43.700;-79.318;2023-04-03T05:19:41;1;1;
64138;PMS5003;50435;43.700;-79.318;2023-04-03T05:22:08;2;2;
64138;PMS5003;50435;43.700;-79.318;2023-04-03T05:24:36;2;2;
64138;PMS5003;50435;43.700;-79.318;2023-04-03T05:27:03;1;1;
64138;PMS5003;50435;43.700;-79.318;2023-04-03T05:29:30;3;3;
64138;PMS5003;50435;43.700;-79.318;2023-04-03T05:31:57;3;2;
64138;PMS5003;50435;43.700;-79.318;2023-04-03T05:34:25;1;1;
64138;PMS5003;50435;43.700;-79.318;2023-04-03T05:36:52;2;1;
64138;PMS5003;50435;43.700;-79.318;2023-04-03T05:39:19;2;1;
64138;PMS5003;50435;43.700;-79.318;2023-04-03T05:41:47;3;3;
64138;PMS5003;50435;43.700;-79.318;2023-04-03T05:44:14;2;2;
64138;PMS5003;50435;43.700;-79.318;2023-04-03T05:46:41;2;2;
64138;PMS5003;50435;43.700;-79.318;2023-04-03T05:49:09;2;1;
64138;PMS5003;50435;43.700;-79.318;2023-04-03T05:51:36;2;2;
64138;PMS5003;50435;43.700;-79.318;2023-04-03T05:54:08;4;2;
64138;PMS5003;50435;43.700;-79.318;2023-04-03T05:56:40;2;2;
64138;PMS5003;50435;43.700;-79.318;2023-04-03T05:59:07;2;2;
64138;PMS5003;50435;43.700;-79.318;2023-04-03T06:01:35;2;2;
64138;PMS5003;50435;43.700;-79.318;2023-04-03T06:04:02;3;3;
64138;PMS5003;50435;43.700;-79.318;2023-04-03T06:06:42;1;1;
64138;PMS5003;50435;43.700;-79.318;2023-04-03T06:09:10;2;2;
64138;PMS5003;50435;43.700;-79.318;2023-04-03T06:11:38;3;3;
64138;PMS5003;50435;43.700;-79.318;2023-04-03T06:14:06;2;2;
64138;PMS5003;50435;43.700;-79.318;2023-04-03T06:16:33;1;0;
64138;PMS5003;50435;43.700;-79.318;2023-04-03T06:19:01;2;2;
64138;PMS5003;50435;43.700;-79.318;2023-04-03T06:21:29;3;3;
64138;PMS5003;50435;43.700;-79.318;2023-04-03T06:23:56;1;1;
64138;PMS5003;50435;43.700;-79.318;2023-04-03T06:26:23;1;1;
64138;PMS5003;50435;43.700;-79.318;2023-04-03T06:28:50;1;1;
64138;PMS5003;50435;43.700;-79.318;2023-04-03T06:31:18;1;1;
64138;PMS5003;50435;43.700;-79.318;2023-04-03T06:33:45;2;2;
64138;PMS5003;50435;43.700;-79.318;2023-04-03T06:36:13;2;1;
64138;PMS5003;50435;43.700;-79.318;2023-04-03T06:38:41;2;2;
64138;PMS5003;50435;43.700;-79.318;2023-04-03T06:41:08;3;2;
64138;PMS5003;50435;43.700;-79.318;2023-04-03T06:43:35;4;4;
64138;PMS5003;50435;43.700;-79.318;2023-04-03T06:46:03;2;2;
64138;PMS5003;50435;43.700;-79.318;2023-04-03T06:48:31;3;1;
64138;PMS5003;50435;43.700;-79.318;2023-04-03T06:50:58;0;0;
64138;PMS5003;50435;43.700;-79.318;2023-04-03T06:53:25;2;2;
64138;PMS5003;50435;43.700;-79.318;2023-04-03T06:55:53;2;2;
64138;PMS5003;50435;43.700;-79.318;2023-04-03T06:58:20;3;2;
64138;PMS5003;50435;43.700;-79.318;2023-04-03T07:00:47;2;2;
64138;PMS5003;50435;43.700;-79.318;2023-04-03T07:03:14;1;1;
64138;PMS5003;50435;43.700;-79.318;2023-04-03T07:05:42;2;2;
64138;PMS5003;50435;43.700;-79.318;2023-04-03T07:08:09;1;1;
64138;PMS5003;50435;43.700;-79.318;2023-04-03T07:10:37;2;2;
64138;PMS5003;50435;43.700;-79.318;2023-04-03T07:13:05;1;1;
64138;PMS5003;50435;43.700;-79.318;2023-04-03T07:15:33;1;1;
64138;PMS5003;50435;43.700;-79.318;2023-04-03T07:18:00;2;2;
64138;PMS5003;50435;43.700;-79.318;2023-04-03T07:20:27;2;2;
64138;PMS5003;50435;43.700;-79.318;2023-04-03T07:22:55;3;3;
64138;PMS5003;50435;43.700;-79.318;2023-04-03T07:25:22;2;2;
64138;PMS5003;50435;43.700;-79.318;2023-04-03T07:27:50;6;4;
64138;PMS5003;50435;43.700;-79.318;2023-04-03T07:30:17;3;3;
64138;PMS5003;50435;43.700;-79.318;2023-04-03T07:32:44;5;1;
64138;PMS5003;50435;43.700;-79.318;2023-04-03T07:35:12;3;3;
64138;PMS5003;50435;43.700;-79.318;2023-04-03T07:37:39;1;1;
64138;PMS5003;50435;43.700;-79.318;2023-04-03T07:40:07;3;2;
64138;PMS5003;50435;43.700;-79.318;2023-04-03T07:42:35;2;2;
64138;PMS5003;50435;43.700;-79.318;2023-04-03T07:45:03;1;1;
64138;PMS5003;50435;43.700;-79.318;2023-04-03T07:47:31;2;2;
64138;PMS5003;50435;43.700;-79.318;2023-04-03T07:49:58;2;2;
64138;PMS5003;50435;43.700;-79.318;2023-04-03T07:52:25;1;1;
64138;PMS5003;50435;43.700;-79.318;2023-04-03T07:54:53;2;2;
64138;PMS5003;50435;43.700;-79.318;2023-04-03T07:57:20;4;3;
64138;PMS5003;50435;43.700;-79.318;2023-04-03T07:59:47;4;4;
64138;PMS5003;50435;43.700;-79.318;2023-04-03T08:02:15;3;3;
64138;PMS5003;50435;43.700;-79.318;2023-04-03T08:04:42;5;5;
64138;PMS5003;50435;43.700;-79.318;2023-04-03T08:07:09;2;2;
64138;PMS5003;50435;43.700;-79.318;2023-04-03T08:09:37;2;2;
64138;PMS5003;50435;43.700;-79.318;2023-04-03T08:12:04;1;1;
64138;PMS5003;50435;43.700;-79.318;2023-04-03T08:14:32;2;2;
64138;PMS5003;50435;43.700;-79.318;2023-04-03T08:17:00;2;2;
64138;PMS5003;50435;43.700;-79.318;2023-04-03T08:19:27;3;2;
64138;PMS5003;50435;43.700;-79.318;2023-04-03T08:21:54;6;5;
64138;PMS5003;50435;43.700;-79.318;2023-04-03T08:24:22;1;1;
64138;PMS5003;50435;43.700;-79.318;2023-04-03T08:26:49;4;3;
64138;PMS5003;50435;43.700;-79.318;2023-04-03T08:29:17;3;3;
64138;PMS5003;50435;43.700;-79.318;2023-04-03T08:31:44;2;2;
64138;PMS5003;50435;43.700;-79.318;2023-04-03T08:34:11;2;2;
64138;PMS5003;50435;43.700;-79.318;2023-04-03T08:36:38;2;1;
64138;PMS5003;50435;43.700;-79.318;2023-04-03T08:39:06;1;1;
64138;PMS5003;50435;43.700;-79.318;2023-04-03T08:41:34;3;2;
64138;PMS5003;50435;43.700;-79.318;2023-04-03T08:44:07;2;2;
64138;PMS5003;50435;43.700;-79.318;2023-04-03T08:46:46;3;3;
64138;PMS5003;50435;43.700;-79.318;2023-04-03T08:49:24;3;2;
64138;PMS5003;50435;43.700;-79.318;2023-04-03T08:51:54;2;2;
64138;PMS5003;50435;43.700;-79.318;2023-04-03T08:54:26;3;3;
64138;PMS5003;50435;43.700;-79.318;2023-04-03T08:56:57;2;2;
64138;PMS5003;50435;43.700;-79.318;2023-04-03T08:59:28;6;3;
64138;PMS5003;50435;43.700;-79.318;2023-04-03T09:01:57;4;3;
64138;PMS5003;50435;43.700;-79.318;2023-04-03T09:04:29;4;3;
64138;PMS5003;50435;43.700;-79.318;2023-04-03T09:06:59;2;2;
64138;PMS5003;50435;43.700;-79.318;2023-04-03T09:09:35;4;4;
64138;PMS5003;50435;43.700;-79.318;2023-04-03T09:12:06;1;1;
64138;PMS5003;50435;43.700;-79.318;2023-04-03T09:14:44;4;4;
64138;PMS5003;50435;43.700;-79.318;2023-04-03T09:17:22;3;3;
64138;PMS5003;50435;43.700;-79.318;2023-04-03T09:20:06;3;2;
64138;PMS5003;50435;43.700;-79.318;2023-04-03T09:22:42;8;4;
64138;PMS5003;50435;43.700;-79.318;2023-04-03T09:25:13;3;3;
64138;PMS5003;50435;43.700;-79.318;2023-04-03T09:27:43;3;3;
64138;PMS5003;50435;43.700;-79.318;2023-04-03T09:30:13;4;1;
64138;PMS5003;50435;43.700;-79.318;2023-04-03T09:32:41;5;4;
64138;PMS5003;50435;43.700;-79.318;2023-04-03T09:35:17;4;3;
64138;PMS5003;50435;43.700;-79.318;2023-04-03T09:37:48;4;3;
64138;PMS5003;50435;43.700;-79.318;2023-04-03T09:40:33;2;2;
64138;PMS5003;50435;43.700;-79.318;2023-04-03T09:43:29;3;2;
64138;PMS5003;50435;43.700;-79.318;2023-04-03T09:46:15;3;3;
64138;PMS5003;50435;43.700;-79.318;2023-04-03T09:48:49;3;3;
64138;PMS5003;50435;43.700;-79.318;2023-04-03T09:51:18;5;5;
64138;PMS5003;50435;43.700;-79.318;2023-04-03T09:53:46;5;3;
64138;PMS5003;50435;43.700;-79.318;2023-04-03T09:56:21;5;3;
64138;PMS5003;50435;43.700;-79.318;2023-04-03T09:58:51;4;3;
64138;PMS5003;50435;43.700;-79.318;2023-04-03T10:01:34;5;3;
64138;PMS5003;50435;43.700;-79.318;2023-04-03T10:04:06;4;4;
64138;PMS5003;50435;43.700;-79.318;2023-04-03T10:06:36;4;4;
64138;PMS5003;50435;43.700;-79.318;2023-04-03T10:09:05;4;3;
64138;PMS5003;50435;43.700;-79.318;2023-04-03T10:11:56;5;4;
64138;PMS5003;50435;43.700;-79.318;2023-04-03T10:14:25;2;2;
64138;PMS5003;50435;43.700;-79.318;2023-04-03T10:16:56;4;3;
64138;PMS5003;50435;43.700;-79.318;2023-04-03T10:19:32;5;3;
64138;PMS5003;50435;43.700;-79.318;2023-04-03T10:22:04;5;5;
64138;PMS5003;50435;43.700;-79.318;2023-04-03T10:24:45;4;4;
64138;PMS5003;50435;43.700;-79.318;2023-04-03T10:27:20;3;3;
64138;PMS5003;50435;43.700;-79.318;2023-04-03T10:29:59;4;4;
64138;PMS5003;50435;43.700;-79.318;2023-04-03T10:32:42;4;4;
64138;PMS5003;50435;43.700;-79.318;2023-04-03T10:35:16;5;4;
64138;PMS5003;50435;43.700;-79.318;2023-04-03T10:37:53;4;3;
64138;PMS5003;50435;43.700;-79.318;2023-04-03T10:40:30;7;5;
64138;PMS5003;50435;43.700;-79.318;2023-04-03T10:43:08;4;3;
64138;PMS5003;50435;43.700;-79.318;2023-04-03T10:45:46;5;5;
64138;PMS5003;50435;43.700;-79.318;2023-04-03T10:48:23;4;4;
64138;PMS5003;50435;43.700;-79.318;2023-04-03T10:51:01;7;5;
64138;PMS5003;50435;43.700;-79.318;2023-04-03T10:53:40;4;4;
64138;PMS5003;50435;43.700;-79.318;2023-04-03T10:56:12;8;7;
64138;PMS5003;50435;43.700;-79.318;2023-04-03T10:58:45;8;5;
64138;PMS5003;50435;43.700;-79.318;2023-04-03T11:01:19;3;3;
64138;PMS5003;50435;43.700;-79.318;2023-04-03T11:03:49;4;4;
64138;PMS5003;50435;43.700;-79.318;2023-04-03T11:06:20;4;4;
64138;PMS5003;50435;43.700;-79.318;2023-04-03T11:08:52;4;4;
64138;PMS5003;50435;43.700;-79.318;2023-04-03T11:11:24;5;3;
64138;PMS5003;50435;43.700;-79.318;2023-04-03T11:13:57;4;4;
64138;PMS5003;50435;43.700;-79.318;2023-04-03T11:16:30;4;4;
64138;PMS5003;50435;43.700;-79.318;2023-04-03T11:19:01;5;4;
64138;PMS5003;50435;43.700;-79.318;2023-04-03T11:21:34;7;7;
64138;PMS5003;50435;43.700;-79.318;2023-04-03T11:24:11;4;4;
64138;PMS5003;50435;43.700;-79.318;2023-04-03T11:26:43;4;3;
64138;PMS5003;50435;43.700;-79.318;2023-04-03T11:29:12;3;3;
64138;PMS5003;50435;43.700;-79.318;2023-04-03T11:31:48;3;3;
64138;PMS5003;50435;43.700;-79.318;2023-04-03T11:34:33;4;4;
64138;PMS5003;50435;43.700;-79.318;2023-04-03T11:37:05;4;4;
64138;PMS5003;50435;43.700;-79.318;2023-04-03T11:39:39;5;3;
64138;PMS5003;50435;43.700;-79.318;2023-04-03T11:42:14;5;5;
64138;PMS5003;50435;43.700;-79.318;2023-04-03T11:44:44;5;5;
64138;PMS5003;50435;43.700;-79.318;2023-04-03T11:47:12;4;4;
64138;PMS5003;50435;43.700;-79.318;2023-04-03T11:50:28;4;4;
64138;PMS5003;50435;43.700;-79.318;2023-04-03T11:52:59;5;3;
64138;PMS5003;50435;43.700;-79.318;2023-04-03T11:55:45;4;4;
64138;PMS5003;50435;43.700;-79.318;2023-04-03T11:58:22;4;4;
64138;PMS5003;50435;43.700;-79.318;2023-04-03T12:00:52;4;3;
64138;PMS5003;50435;43.700;-79.318;2023-04-03T12:04:11;4;4;
64138;PMS5003;50435;43.700;-79.318;2023-04-03T12:06:49;7;5;
64138;PMS5003;50435;43.700;-79.318;2023-04-03T12:09:27;9;8;
64138;PMS5003;50435;43.700;-79.318;2023-04-03T12:11:59;4;4;
64138;PMS5003;50435;43.700;-79.318;2023-04-03T12:14:48;5;5;
64138;PMS5003;50435;43.700;-79.318;2023-04-03T12:17:19;4;4;
64138;PMS5003;50435;43.700;-79.318;2023-04-03T12:19:50;3;3;
64138;PMS5003;50435;43.700;-79.318;2023-04-03T12:22:18;5;5;
64138;PMS5003;50435;43.700;-79.318;2023-04-03T12:24:48;4;4;
64138;PMS5003;50435;43.700;-79.318;2023-04-03T12:27:21;5;5;
64138;PMS5003;50435;43.700;-79.318;2023-04-03T12:29:53;5;5;
64138;PMS5003;50435;43.700;-79.318;2023-04-03T12:32:34;4;4;
64138;PMS5003;50435;43.700;-79.318;2023-04-03T12:35:12;8;5;
64138;PMS5003;50435;43.700;-79.318;2023-04-03T12:38:02;5;5;
64138;PMS5003;50435;43.700;-79.318;2023-04-03T12:40:46;5;4;
64138;PMS5003;50435;43.700;-79.318;2023-04-03T12:43:22;8;8;
64138;PMS5003;50435;43.700;-79.318;2023-04-03T12:45:58;8;8;
64138;PMS5003;50435;43.700;-79.318;2023-04-03T12:48:30;5;5;
64138;PMS5003;50435;43.700;-79.318;2023-04-03T12:51:04;5;5;
64138;PMS5003;50435;43.700;-79.318;2023-04-03T12:53:33;5;5;
64138;PMS5003;50435;43.700;-79.318;2023-04-03T12:56:19;6;6;
64138;PMS5003;50435;43.700;-79.318;2023-04-03T12:58:51;4;4;
64138;PMS5003;50435;43.700;-79.318;2023-04-03T13:01:21;9;7;
64138;PMS5003;50435;43.700;-79.318;2023-04-03T13:03:51;6;6;
64138;PMS5003;50435;43.700;-79.318;2023-04-03T13:06:21;10;9;
64138;PMS5003;50435;43.700;-79.318;2023-04-03T13:08:52;6;6;
64138;PMS5003;50435;43.700;-79.318;2023-04-03T13:11:21;5;5;
64138;PMS5003;50435;43.700;-79.318;2023-04-03T13:13:58;7;7;
64138;PMS5003;50435;43.700;-79.318;2023-04-03T13:16:27;10;10;
64138;PMS5003;50435;43.700;-79.318;2023-04-03T13:18:55;9;8;
64138;PMS5003;50435;43.700;-79.318;2023-04-03T13:21:24;8;8;
64138;PMS5003;50435;43.700;-79.318;2023-04-03T13:23:55;6;6;
64138;PMS5003;50435;43.700;-79.318;2023-04-03T13:26:26;12;8;
64138;PMS5003;50435;43.700;-79.318;2023-04-03T13:28:58;12;9;
64138;PMS5003;50435;43.700;-79.318;2023-04-03T13:31:29;8;8;
64138;PMS5003;50435;43.700;-79.318;2023-04-03T13:34:03;13;13;
64138;PMS5003;50435;43.700;-79.318;2023-04-03T13:36:34;8;8;
64138;PMS5003;50435;43.700;-79.318;2023-04-03T13:39:04;9;9;
64138;PMS5003;50435;43.700;-79.318;2023-04-03T13:41:44;9;9;
64138;PMS5003;50435;43.700;-79.318;2023-04-03T13:44:24;9;9;
64138;PMS5003;50435;43.700;-79.318;2023-04-03T13:46:56;10;9;
64138;PMS5003;50435;43.700;-79.318;2023-04-03T13:49:29;10;9;
64138;PMS5003;50435;43.700;-79.318;2023-04-03T13:52:00;11;9;
64138;PMS5003;50435;43.700;-79.318;2023-04-03T13:54:31;14;12;
64138;PMS5003;50435;43.700;-79.318;2023-04-03T13:57:01;20;17;
64138;PMS5003;50435;43.700;-79.318;2023-04-03T13:59:31;14;10;
64138;PMS5003;50435;43.700;-79.318;2023-04-03T14:02:12;11;11;
64138;PMS5003;50435;43.700;-79.318;2023-04-03T14:04:45;9;9;
64138;PMS5003;50435;43.700;-79.318;2023-04-03T14:07:16;13;11;
64138;PMS5003;50435;43.700;-79.318;2023-04-03T14:09:44;11;10;
64138;PMS5003;50435;43.700;-79.318;2023-04-03T14:12:13;12;12;
64138;PMS5003;50435;43.700;-79.318;2023-04-03T14:14:44;10;9;
64138;PMS5003;50435;43.700;-79.318;2023-04-03T14:17:14;11;10;
64138;PMS5003;50435;43.700;-79.318;2023-04-03T14:19:42;10;10;
64138;PMS5003;50435;43.700;-79.318;2023-04-03T14:22:14;14;13;
64138;PMS5003;50435;43.700;-79.318;2023-04-03T14:24:43;12;11;
64138;PMS5003;50435;43.700;-79.318;2023-04-03T14:27:13;12;12;
64138;PMS5003;50435;43.700;-79.318;2023-04-03T14:29:43;10;10;
64138;PMS5003;50435;43.700;-79.318;2023-04-03T14:32:11;13;11;
64138;PMS5003;50435;43.700;-79.318;2023-04-03T14:34:39;11;11;
64138;PMS5003;50435;43.700;-79.318;2023-04-03T14:37:09;11;10;
64138;PMS5003;50435;43.700;-79.318;2023-04-03T14:39:38;12;12;
64138;PMS5003;50435;43.700;-79.318;2023-04-03T14:42:10;15;10;
64138;PMS5003;50435;43.700;-79.318;2023-04-03T14:44:40;15;13;
64138;PMS5003;50435;43.700;-79.318;2023-04-03T14:47:09;12;11;
64138;PMS5003;50435;43.700;-79.318;2023-04-03T14:49:39;13;12;
64138;PMS5003;50435;43.700;-79.318;2023-04-03T14:52:10;12;12;
64138;PMS5003;50435;43.700;-79.318;2023-04-03T14:54:45;13;12;
64138;PMS5003;50435;43.700;-79.318;2023-04-03T14:57:14;13;13;
64138;PMS5003;50435;43.700;-79.318;2023-04-03T14:59:43;14;11;
64138;PMS5003;50435;43.700;-79.318;2023-04-03T15:02:24;13;12;
64138;PMS5003;50435;43.700;-79.318;2023-04-03T15:04:54;11;11;
64138;PMS5003;50435;43.700;-79.318;2023-04-03T15:07:23;10;9;
64138;PMS5003;50435;43.700;-79.318;2023-04-03T15:09:53;9;9;
64138;PMS5003;50435;43.700;-79.318;2023-04-03T15:12:20;12;10;
64138;PMS5003;50435;43.700;-79.318;2023-04-03T15:14:48;13;12;
64138;PMS5003;50435;43.700;-79.318;2023-04-03T15:17:16;10;10;
64138;PMS5003;50435;43.700;-79.318;2023-04-03T15:19:46;10;9;
64138;PMS5003;50435;43.700;-79.318;2023-04-03T15:22:14;10;10;
64138;PMS5003;50435;43.700;-79.318;2023-04-03T15:24:43;11;9;
64138;PMS5003;50435;43.700;-79.318;2023-04-03T15:27:12;10;10;
64138;PMS5003;50435;43.700;-79.318;2023-04-03T15:29:41;8;8;
64138;PMS5003;50435;43.700;-79.318;2023-04-03T15:32:11;8;8;
64138;PMS5003;50435;43.700;-79.318;2023-04-03T15:34:39;11;11;
64138;PMS5003;50435;43.700;-79.318;2023-04-03T15:37:07;10;8;
64138;PMS5003;50435;43.700;-79.318;2023-04-03T15:39:35;8;8;
64138;PMS5003;50435;43.700;-79.318;2023-04-03T15:42:03;11;11;
64138;PMS5003;50435;43.700;-79.318;2023-04-03T15:44:31;10;10;
64138;PMS5003;50435;43.700;-79.318;2023-04-03T15:46:59;11;10;
64138;PMS5003;50435;43.700;-79.318;2023-04-03T15:49:28;10;8;
64138;PMS5003;50435;43.700;-79.318;2023-04-03T15:51:56;12;11;
64138;PMS5003;50435;43.700;-79.318;2023-04-03T15:54:23;10;10;
64138;PMS5003;50435;43.700;-79.318;2023-04-03T15:56:51;15;11;
64138;PMS5003;50435;43.700;-79.318;2023-04-03T15:59:19;13;13;
64138;PMS5003;50435;43.700;-79.318;2023-04-03T16:01:46;12;11;
64138;PMS5003;50435;43.700;-79.318;2023-04-03T16:04:14;15;11;
64138;PMS5003;50435;43.700;-79.318;2023-04-03T16:06:43;13;13;
64138;PMS5003;50435;43.700;-79.318;2023-04-03T16:09:10;10;8;
64138;PMS5003;50435;43.700;-79.318;2023-04-03T16:11:37;9;8;
64138;PMS5003;50435;43.700;-79.318;2023-04-03T16:14:05;10;8;
64138;PMS5003;50435;43.700;-79.318;2023-04-03T16:16:33;9;8;
64138;PMS5003;50435;43.700;-79.318;2023-04-03T16:19:01;8;8;
64138;PMS5003;50435;43.700;-79.318;2023-04-03T16:21:29;7;7;
64138;PMS5003;50435;43.700;-79.318;2023-04-03T16:23:58;9;8;
64138;PMS5003;50435;43.700;-79.318;2023-04-03T16:26:26;11;7;
64138;PMS5003;50435;43.700;-79.318;2023-04-03T16:28:54;7;6;
64138;PMS5003;50435;43.700;-79.318;2023-04-03T16:31:23;10;10;
64138;PMS5003;50435;43.700;-79.318;2023-04-03T16:33:51;11;9;